Time;durP1;ratioP1;P1;durP2;ratioP2;P2;SDS_P1;SDS_P2;PMS_P1;PMS_P2;Temp;Humidity;BMP_temperature;BMP_pressure;BME280_temperature;BME280_humidity;BME280_pressure;Samples;Min_cycle;Max_cycle;Signal;HPM_P1;HPM_P2
2021/06/20 00:04:01;;;;;;;8.83;7.87;;;;;;;22.46;57.72;99742.33;254230;1104;115262;-73
2021/06/20 00:09:11;;;;;;;8.80;7.38;;;;;;;22.31;58.05;99729.98;254300;1104;115519;-72
2021/06/20 00:14:14;;;;;;;8.35;7.70;;;;;;;22.18;58.65;99728.95;255047;1104;115939;-74
2021/06/20 00:19:16;;;;;;;8.60;7.80;;;;;;;22.10;58.83;99726.17;257523;1104;116995;-74
2021/06/20 00:24:19;;;;;;;8.50;7.68;;;;;;;22.06;59.11;99730.62;256700;1103;114930;-75
2021/06/20 00:29:22;;;;;;;8.45;7.55;;;;;;;22.01;59.09;99733.48;256324;1103;115597;-75
2021/06/20 00:34:25;;;;;;;9.40;8.13;;;;;;;21.90;59.09;99721.25;255409;1102;115963;-74
2021/06/20 00:39:29;;;;;;;9.88;7.70;;;;;;;21.79;59.47;99712.55;255612;1103;115505;-75
2021/06/20 00:44:46;;;;;;;8.05;7.08;;;;;;;21.73;59.75;99713.78;254589;1096;116241;-72
2021/06/20 00:49:50;;;;;;;7.83;7.23;;;;;;;21.67;59.83;99718.55;255363;1097;115249;-73
2021/06/20 00:54:57;;;;;;;10.28;7.83;;;;;;;21.60;59.93;99714.66;254248;1104;115505;-71
2021/06/20 01:00:00;;;;;;;8.63;7.75;;;;;;;21.44;59.97;99715.00;254271;1096;117685;-73
2021/06/20 01:05:09;;;;;;;8.38;6.90;;;;;;;21.37;60.21;99714.66;254653;1104;115917;-74
2021/06/20 01:10:12;;;;;;;10.03;7.45;;;;;;;21.35;60.15;99711.45;254309;1103;115402;-77
2021/06/20 01:15:17;;;;;;;8.03;7.33;;;;;;;21.35;60.36;99707.93;254496;1102;115881;-76
2021/06/20 01:20:21;;;;;;;8.27;7.57;;;;;;;21.27;60.60;99703.23;254443;1104;115691;-76
2021/06/20 01:25:28;;;;;;;9.13;8.43;;;;;;;21.17;60.66;99704.22;254688;1103;115270;-75
2021/06/20 01:30:37;;;;;;;7.80;7.10;;;;;;;21.08;60.91;99693.32;254300;1104;115109;-73
2021/06/20 01:35:42;;;;;;;7.45;6.95;;;;;;;21.03;60.75;99688.01;254465;1103;116079;-72
2021/06/20 01:40:45;;;;;;;7.87;7.17;;;;;;;20.96;61.18;99686.81;254367;1102;115188;-72
2021/06/20 01:45:49;;;;;;;7.45;6.85;;;;;;;20.87;61.17;99686.72;254465;1097;115160;-72
2021/06/20 01:50:52;;;;;;;10.25;7.18;;;;;;;20.82;61.24;99684.92;255254;1104;115374;-72
2021/06/20 01:55:56;;;;;;;11.90;7.60;;;;;;;20.77;61.51;99681.54;255203;1104;114749;-73
2021/06/20 02:01:01;;;;;;;9.15;8.25;;;;;;;20.78;61.70;99683.14;255134;1097;115302;-76
2021/06/20 02:06:06;;;;;;;17.14;7.50;;;;;;;20.76;61.88;99672.61;254235;1103;115376;-72
2021/06/20 02:11:10;;;;;;;7.48;6.75;;;;;;;20.72;61.80;99659.97;254266;1104;115681;-73
2021/06/20 02:16:13;;;;;;;7.88;7.10;;;;;;;20.62;61.49;99660.17;254226;1104;115289;-73
2021/06/20 02:21:16;;;;;;;7.85;6.80;;;;;;;20.58;61.98;99664.59;257246;1104;115698;-72
2021/06/20 02:26:20;;;;;;;8.03;6.55;;;;;;;20.59;61.99;99663.48;256923;1104;115169;-74
2021/06/20 02:31:23;;;;;;;8.03;7.43;;;;;;;20.58;62.40;99659.17;255318;1103;115137;-75
2021/06/20 02:36:26;;;;;;;9.25;8.35;;;;;;;20.58;62.42;99661.88;257391;1103;115125;-74
2021/06/20 02:41:29;;;;;;;8.08;7.38;;;;;;;20.58;62.51;99665.39;254267;1104;115593;-74
2021/06/20 02:46:32;;;;;;;7.90;7.30;;;;;;;20.55;62.61;99665.19;254313;1097;115136;-74
2021/06/20 02:51:38;;;;;;;9.65;8.50;;;;;;;20.53;62.53;99662.78;255198;1097;115899;-75
2021/06/20 02:56:42;;;;;;;8.90;7.93;;;;;;;20.51;62.82;99665.79;255466;1104;114843;-75
2021/06/20 03:01:44;;;;;;;10.75;7.25;;;;;;;20.48;62.82;99671.03;254655;1103;116164;-72
2021/06/20 03:06:48;;;;;;;6.83;6.23;;;;;;;20.48;63.18;99676.45;254865;1104;116366;-77
2021/06/20 03:11:51;;;;;;;9.13;8.23;;;;;;;20.41;62.96;99671.43;254402;1103;116147;-74
2021/06/20 03:16:55;;;;;;;7.80;7.20;;;;;;;20.40;62.97;99675.24;254477;1104;117192;-71
2021/06/20 03:22:01;;;;;;;7.95;7.15;;;;;;;20.40;63.15;99669.02;254858;1104;116097;-72
2021/06/20 03:27:05;;;;;;;8.68;7.85;;;;;;;20.38;63.04;99671.23;254802;1103;116477;-72
2021/06/20 03:32:08;;;;;;;9.98;7.90;;;;;;;20.43;63.40;99674.64;254606;1104;116727;-73
2021/06/20 03:37:12;;;;;;;13.40;8.83;;;;;;;20.49;63.35;99680.73;254562;1097;116846;-74
2021/06/20 03:42:18;;;;;;;6.88;6.35;;;;;;;20.68;63.27;99669.80;254642;1104;116326;-73
2021/06/20 03:47:23;;;;;;;8.05;7.25;;;;;;;20.85;62.92;99675.38;254381;1104;117036;-73
2021/06/20 03:52:27;;;;;;;7.00;6.23;;;;;;;20.83;62.94;99653.20;255227;1104;117045;-72
2021/06/20 03:57:30;;;;;;;7.75;5.95;;;;;;;21.12;62.43;99652.83;254896;1103;115861;-72
2021/06/20 04:02:32;;;;;;;6.60;6.10;;;;;;;21.25;62.51;99651.22;254950;1103;115942;-73
2021/06/20 04:07:35;;;;;;;11.35;6.70;;;;;;;21.35;62.14;99651.79;255703;1104;115276;-74
2021/06/20 04:12:39;;;;;;;8.08;7.08;;;;;;;21.51;61.86;99653.01;255375;1104;116335;-73
2021/06/20 04:17:44;;;;;;;6.30;5.70;;;;;;;21.75;61.89;99644.53;254497;1096;116283;-72
2021/06/20 04:22:46;;;;;;;6.53;5.98;;;;;;;22.04;61.18;99635.13;254380;1104;117405;-72
2021/06/20 04:27:50;;;;;;;4.78;4.20;;;;;;;22.26;61.03;99629.64;254467;1104;116359;-73
2021/06/20 04:32:53;;;;;;;5.00;4.60;;;;;;;23.47;59.50;99624.33;254283;1103;115881;-72
2021/06/20 04:37:57;;;;;;;4.18;3.88;;;;;;;28.38;53.46;99631.63;257382;1103;115140;-76
2021/06/20 04:43:25;;;;;;;4.85;4.53;;;;;;;32.21;48.26;99649.17;256645;1104;115552;-74
2021/06/20 04:48:29;;;;;;;4.53;4.23;;;;;;;33.00;45.27;99657.64;255845;1104;115810;-74
2021/06/20 04:53:34;;;;;;;3.68;3.18;;;;;;;32.05;43.55;99669.55;255283;1104;114523;-76
2021/06/20 04:58:39;;;;;;;3.93;3.20;;;;;;;30.75;43.21;99664.05;255563;1104;115431;-74
2021/06/20 05:03:42;;;;;;;4.30;3.90;;;;;;;31.23;42.43;99645.81;255195;1104;116579;-74
2021/06/20 05:08:47;;;;;;;3.35;3.15;;;;;;;33.37;39.32;99648.31;254223;1103;116880;-73
2021/06/20 05:13:50;;;;;;;2.80;2.60;;;;;;;35.91;37.08;99658.60;254398;1100;116938;-74
2021/06/20 05:18:58;;;;;;;3.30;2.73;;;;;;;39.28;33.74;99687.36;254576;1103;116616;-73
2021/06/20 05:24:04;;;;;;;2.87;2.47;;;;;;;41.41;30.14;99697.22;255389;1104;118934;-74
2021/06/20 05:29:11;;;;;;;3.68;2.48;;;;;;;43.25;29.36;99712.72;254640;1104;115960;-78
2021/06/20 05:34:15;;;;;;;2.73;2.20;;;;;;;45.04;27.20;99715.44;254382;1096;116840;-77
2021/06/20 05:39:19;;;;;;;2.37;2.27;;;;;;;46.25;24.68;99728.18;254361;1104;117114;-75
2021/06/20 05:44:22;;;;;;;2.58;2.48;;;;;;;46.89;23.04;99726.96;254937;1103;115872;-74
2021/06/20 05:49:26;;;;;;;5.08;2.43;;;;;;;47.30;22.47;99728.00;254479;1102;116031;-73
2021/06/20 05:54:28;;;;;;;2.50;2.20;;;;;;;47.80;20.76;99740.16;254321;1104;116920;-71
2021/06/20 05:59:31;;;;;;;3.68;1.55;;;;;;;48.53;20.71;99736.34;254192;1103;116906;-73
2021/06/20 06:04:34;;;;;;;1.73;1.73;;;;;;;48.30;19.55;99745.02;255196;1103;115442;-74
2021/06/20 06:09:38;;;;;;;1.80;1.70;;;;;;;49.05;19.12;99750.56;255021;1103;115700;-70
2021/06/20 06:14:40;;;;;;;5.15;2.35;;;;;;;49.30;18.76;99743.36;254543;1104;116456;-76
2021/06/20 06:19:43;;;;;;;2.25;1.73;;;;;;;48.85;18.25;99747.76;254805;1104;208351;-75
2021/06/20 06:24:48;;;;;;;3.67;1.77;;;;;;;48.73;17.74;99746.06;255427;1096;115973;-75
2021/06/20 06:29:51;;;;;;;2.05;1.95;;;;;;;48.39;17.28;99739.20;255638;1104;115452;-73
2021/06/20 06:34:54;;;;;;;2.30;2.17;;;;;;;48.32;18.41;99729.08;255470;1103;117607;-74
2021/06/20 06:39:57;;;;;;;2.40;2.24;;;;;;;48.75;17.69;99727.32;257195;1103;115967;-75
2021/06/20 06:45:01;;;;;;;2.05;1.95;;;;;;;48.87;17.85;99733.92;255319;1103;117004;-74
2021/06/20 06:50:06;;;;;;;2.10;1.83;;;;;;;48.92;17.62;99726.77;256129;1103;116476;-75
2021/06/20 06:55:10;;;;;;;3.47;2.20;;;;;;;48.54;17.23;99711.66;254155;1104;115687;-73
2021/06/20 07:00:13;;;;;;;1.63;1.57;;;;;;;47.92;17.29;99712.86;255750;1104;115397;-72
2021/06/20 07:05:16;;;;;;;3.25;2.60;;;;;;;48.17;17.55;99706.55;255155;1103;115996;-72
2021/06/20 07:10:19;;;;;;;1.58;1.48;;;;;;;48.11;17.26;99702.05;254316;1104;115939;-74
2021/06/20 07:15:24;;;;;;;1.93;1.83;;;;;;;48.17;17.12;99689.59;254189;1096;116192;-74
2021/06/20 07:20:28;;;;;;;2.60;1.60;;;;;;;47.64;16.36;99703.94;254664;1098;115772;-74
2021/06/20 07:25:34;;;;;;;2.33;2.23;;;;;;;45.73;17.48;99692.14;254596;1099;115709;-74
2021/06/20 07:30:38;;;;;;;2.20;1.20;;;;;;;44.39;19.59;99694.92;254322;1096;114810;-77
2021/06/20 07:35:40;;;;;;;1.37;1.37;;;;;;;43.05;20.17;99693.41;254516;1103;115446;-75
2021/06/20 07:40:44;;;;;;;2.07;1.40;;;;;;;41.91;20.97;99694.45;254333;1097;115481;-74
2021/06/20 07:45:49;;;;;;;1.95;1.75;;;;;;;40.56;22.72;99691.98;254294;1103;114946;-76
2021/06/20 07:50:54;;;;;;;1.80;1.10;;;;;;;40.40;23.82;99689.98;254432;1104;115994;-72
2021/06/20 07:55:59;;;;;;;1.80;1.60;;;;;;;40.35;24.59;99685.73;254286;1103;115559;-76
2021/06/20 08:01:03;;;;;;;1.85;1.65;;;;;;;40.33;25.52;99673.43;254787;1103;116731;-75
2021/06/20 08:06:06;;;;;;;2.03;1.30;;;;;;;39.40;24.04;99669.97;254275;1104;115732;-78
2021/06/20 08:11:13;;;;;;;1.20;1.20;;;;;;;38.80;25.47;99675.98;254172;1104;115293;-76
2021/06/20 08:16:19;;;;;;;1.50;1.45;;;;;;;38.14;25.13;99671.95;254285;1104;114927;-76
2021/06/20 08:21:23;;;;;;;4.98;1.50;;;;;;;37.63;26.46;99684.20;254140;1104;115774;-74
2021/06/20 08:26:26;;;;;;;1.30;1.27;;;;;;;37.51;27.51;99671.66;254260;1104;115575;-72
2021/06/20 08:31:30;;;;;;;1.98;1.88;;;;;;;37.40;27.89;99654.33;256163;1103;115454;-73
2021/06/20 08:36:35;;;;;;;1.17;1.17;;;;;;;37.62;28.36;99650.03;254630;1104;115401;-74
2021/06/20 08:41:44;;;;;;;1.93;1.30;;;;;;;37.51;28.69;99648.63;255531;1104;115983;-76
2021/06/20 08:46:47;;;;;;;1.75;1.65;;;;;;;36.95;28.50;99651.71;255405;1100;115748;-78
2021/06/20 08:51:52;;;;;;;1.48;1.38;;;;;;;36.74;27.79;99651.94;255471;1104;115623;-76
2021/06/20 08:56:57;;;;;;;1.50;1.20;;;;;;;36.47;27.98;99642.68;256470;1099;116103;-75
2021/06/20 09:02:00;;;;;;;;;;;;;;;36.22;28.78;99632.58;254231;1104;115381;-74
2021/06/20 09:07:05;;;;;;;3.43;1.85;;;;;;;36.14;27.73;99635.81;256601;1099;103275;-78
2021/06/20 09:12:14;;;;;;;1.53;1.43;;;;;;;35.95;29.98;99626.08;254403;1104;116057;-74
2021/06/20 09:17:29;;;;;;;1.97;1.87;;;;;;;36.18;29.54;99623.49;254541;1102;115370;-72
2021/06/20 09:22:33;;;;;;;1.83;1.73;;;;;;;35.92;29.65;99624.91;255305;1096;117428;-76
2021/06/20 09:27:36;;;;;;;4.17;1.87;;;;;;;35.80;29.85;99624.59;254417;1104;115991;-75
2021/06/20 09:32:40;;;;;;;1.65;1.55;;;;;;;35.50;29.89;99603.78;254327;1096;116960;-74
2021/06/20 09:37:50;;;;;;;1.13;1.13;;;;;;;35.65;30.80;99599.73;254660;1103;116716;-77
2021/06/20 09:42:54;;;;;;;1.50;1.48;;;;;;;35.84;31.38;99579.00;254368;1104;117608;-82
2021/06/20 09:47:57;;;;;;;2.13;1.53;;;;;;;35.73;29.97;99573.53;254264;1104;115683;-80
2021/06/20 09:53:00;;;;;;;;;;;;;;;35.58;29.32;99571.26;254235;1104;115417;-75
2021/06/20 09:58:04;;;;;;;2.25;1.35;;;;;;;35.30;29.52;99555.62;256010;1104;103107;-74
2021/06/20 10:03:08;;;;;;;;;;;;;;;35.09;29.50;99551.77;254407;1104;115547;-77
2021/06/20 10:08:14;;;;;;;2.33;2.00;;;;;;;34.92;30.36;99547.09;256742;1103;103243;-75
2021/06/20 10:13:17;;;;;;;1.60;1.60;;;;;;;35.10;30.35;99539.48;254907;1104;115682;-74
2021/06/20 10:18:21;;;;;;;3.93;1.37;;;;;;;35.01;29.26;99536.37;254774;1104;114941;-74
2021/06/20 10:23:25;;;;;;;1.90;1.80;;;;;;;35.07;29.00;99526.45;256047;1104;115454;-73
2021/06/20 10:28:31;;;;;;;4.23;1.98;;;;;;;35.10;30.27;99509.02;256941;1104;116737;-76
2021/06/20 10:33:37;;;;;;;6.70;2.10;;;;;;;35.01;29.06;99513.42;256851;1102;115164;-76
2021/06/20 10:38:46;;;;;;;3.53;2.07;;;;;;;34.98;30.00;99501.16;254688;1096;117086;-75
2021/06/20 10:44:01;;;;;;;3.03;1.47;;;;;;;34.95;29.54;99504.73;254374;1096;116134;-75
2021/06/20 10:49:18;;;;;;;1.58;1.48;;;;;;;34.81;29.48;99507.61;254259;1104;115604;-77
2021/06/20 10:54:36;;;;;;;16.98;3.48;;;;;;;34.89;29.57;99511.89;256919;1102;115558;-78
2021/06/20 10:59:40;;;;;;;1.98;1.88;;;;;;;34.85;29.10;99516.69;254378;1102;116355;-78
2021/06/20 11:04:49;;;;;;;1.60;1.50;;;;;;;34.77;29.98;99523.41;254324;1103;115273;-78
2021/06/20 11:09:53;;;;;;;1.30;1.30;;;;;;;35.04;30.74;99520.92;254809;1103;115705;-77
2021/06/20 11:14:57;;;;;;;1.50;1.28;;;;;;;35.12;31.00;99522.47;254773;1104;115773;-79
2021/06/20 11:20:11;;;;;;;1.90;1.10;;;;;;;35.00;30.35;99509.07;254545;1104;116034;-77
2021/06/20 11:25:14;;;;;;;;;;;;;;;34.91;30.26;99500.41;255216;1103;114963;-71
2021/06/20 11:30:19;;;;;;;5.00;1.80;;;;;;;34.80;30.33;99497.72;254956;1103;102986;-73
2021/06/20 11:35:23;;;;;;;1.23;1.23;;;;;;;34.78;30.40;99494.53;254423;1103;115276;-77
2021/06/20 11:40:28;;;;;;;1.58;1.48;;;;;;;34.76;29.85;99494.14;254399;1104;114649;-77
2021/06/20 11:45:33;;;;;;;3.83;1.53;;;;;;;34.85;30.69;99491.77;254353;1103;115122;-78
2021/06/20 11:50:39;;;;;;;2.93;1.63;;;;;;;34.94;29.22;99502.38;254331;1104;115668;-77
2021/06/20 11:55:47;;;;;;;1.30;1.30;;;;;;;34.88;29.73;99506.75;254633;1097;115693;-77
2021/06/20 12:00:49;;;;;;;1.48;1.38;;;;;;;34.81;29.85;99507.61;254469;1103;114910;-74
2021/06/20 12:06:02;;;;;;;1.58;1.48;;;;;;;34.64;29.61;99494.59;254361;1104;115845;-76
2021/06/20 12:11:06;;;;;;;1.43;1.18;;;;;;;34.53;30.14;99491.09;254678;1102;115480;-75
2021/06/20 12:16:10;;;;;;;1.40;1.40;;;;;;;34.41;29.86;99479.27;255566;1104;117458;-75
2021/06/20 12:21:25;;;;;;;1.18;1.18;;;;;;;34.27;28.81;99476.52;254158;1104;116069;-73
2021/06/20 12:26:31;;;;;;;1.50;1.40;;;;;;;34.41;29.17;99468.20;254310;1104;116352;-74
2021/06/20 12:31:34;;;;;;;1.40;1.30;;;;;;;34.42;28.92;99463.45;254458;1104;115747;-70
2021/06/20 12:36:37;;;;;;;1.68;1.33;;;;;;;34.56;29.71;99459.81;254239;1104;115850;-74
2021/06/20 12:41:40;;;;;;;1.83;1.70;;;;;;;34.68;29.95;99462.14;256143;1104;115456;-73
2021/06/20 12:46:46;;;;;;;4.23;1.85;;;;;;;34.58;29.33;99466.53;256370;1096;115609;-77
2021/06/20 12:51:52;;;;;;;1.40;1.40;;;;;;;34.53;29.83;99453.14;256149;1103;115605;-78
2021/06/20 12:57:06;;;;;;;2.43;2.23;;;;;;;34.49;30.10;99463.43;254621;1103;115304;-79
2021/06/20 13:02:22;;;;;;;2.85;1.50;;;;;;;34.60;29.58;99447.55;256066;1102;114658;-77
2021/06/20 13:07:41;;;;;;;1.80;1.70;;;;;;;34.58;29.59;99440.83;257239;1103;115326;-74
2021/06/20 13:12:43;;;;;;;4.50;2.07;;;;;;;34.51;29.45;99443.66;254459;1096;114959;-73
2021/06/20 13:17:46;;;;;;;1.65;1.55;;;;;;;34.52;29.79;99437.72;255647;1104;116088;-74
2021/06/20 13:22:50;;;;;;;1.70;1.60;;;;;;;34.34;29.34;99426.72;254489;1104;115214;-77
2021/06/20 13:27:53;;;;;;;2.10;2.00;;;;;;;34.33;29.71;99438.98;254318;1104;115777;-76
2021/06/20 13:32:56;;;;;;;2.60;2.20;;;;;;;34.25;29.24;99428.30;254471;1097;115887;-77
2021/06/20 13:37:59;;;;;;;1.80;1.70;;;;;;;34.24;28.84;99435.05;254425;1103;116205;-78
2021/06/20 13:43:02;;;;;;;1.75;1.65;;;;;;;34.23;28.69;99439.80;254243;1103;115683;-74
2021/06/20 13:48:07;;;;;;;1.90;1.75;;;;;;;34.14;28.46;99431.13;254385;1104;116980;-78
2021/06/20 13:53:10;;;;;;;2.40;2.30;;;;;;;34.05;28.34;99433.52;255187;1104;115483;-78
2021/06/20 13:58:15;;;;;;;2.15;1.83;;;;;;;33.94;28.51;99433.54;254496;1104;115672;-71
2021/06/20 14:03:18;;;;;;;3.70;2.23;;;;;;;33.86;28.47;99432.00;254525;1104;115765;-72
2021/06/20 14:08:23;;;;;;;3.63;2.05;;;;;;;33.85;28.41;99426.87;254403;1104;117076;-72
2021/06/20 14:13:26;;;;;;;3.50;2.55;;;;;;;33.77;29.26;99426.06;254352;1100;136397;-76
2021/06/20 14:18:30;;;;;;;;;;;;;;;33.68;29.10;99423.70;256944;1104;116768;-74
2021/06/20 14:23:33;;;;;;;2.18;2.08;;;;;;;33.61;29.16;99409.91;255223;1104;103508;-71
2021/06/20 14:28:36;;;;;;;2.33;1.80;;;;;;;33.58;29.16;99413.47;254479;1097;117588;-71
2021/06/20 14:33:42;;;;;;;2.08;1.98;;;;;;;33.56;29.35;99402.02;254342;1104;116176;-72
2021/06/20 14:38:45;;;;;;;1.88;1.78;;;;;;;33.54;29.24;99407.16;254328;1104;116594;-75
2021/06/20 14:43:48;;;;;;;2.23;1.97;;;;;;;33.42;29.21;99399.27;254349;1097;116100;-75
2021/06/20 14:48:51;;;;;;;2.45;1.83;;;;;;;33.25;29.64;99397.28;254369;1104;114898;-74
2021/06/20 14:53:54;;;;;;;3.48;1.88;;;;;;;33.14;29.18;99392.54;255203;1104;115053;-76
2021/06/20 14:58:57;;;;;;;2.10;1.90;;;;;;;33.12;29.26;99375.57;256723;1104;114745;-76
2021/06/20 15:04:01;;;;;;;5.10;2.00;;;;;;;33.11;29.10;99376.75;254832;1102;115612;-74
2021/06/20 15:09:05;;;;;;;2.18;2.08;;;;;;;33.08;29.75;99374.78;254339;1104;115875;-77
2021/06/20 15:14:09;;;;;;;2.00;1.90;;;;;;;33.01;29.50;99366.52;254376;1097;116219;-75
2021/06/20 15:19:12;;;;;;;5.68;2.10;;;;;;;32.93;29.12;99370.45;254333;1097;115569;-74
2021/06/20 15:24:16;;;;;;;2.80;1.83;;;;;;;32.77;29.88;99357.02;254287;1104;115667;-74
2021/06/20 15:29:20;;;;;;;1.98;1.88;;;;;;;32.68;29.94;99359.36;255181;1103;115647;-74
2021/06/20 15:34:39;;;;;;;1.90;1.80;;;;;;;32.63;29.78;99353.44;254568;1104;116175;-74
2021/06/20 15:39:43;;;;;;;5.78;2.05;;;;;;;32.54;30.09;99342.77;254296;1103;117071;-73
2021/06/20 15:44:47;;;;;;;2.18;2.08;;;;;;;32.41;29.68;99339.58;254497;1104;116481;-74
2021/06/20 15:49:50;;;;;;;1.80;1.70;;;;;;;32.33;30.58;99328.94;254292;1103;116423;-73
2021/06/20 15:54:56;;;;;;;3.10;1.90;;;;;;;32.23;30.33;99333.23;254234;1104;117007;-74
2021/06/20 16:00:01;;;;;;;2.20;2.10;;;;;;;32.12;30.33;99326.86;254941;1104;116694;-74
2021/06/20 16:05:06;;;;;;;;;;;;;;;31.98;30.85;99332.34;254930;1104;117099;-73
2021/06/20 16:10:13;;;;;;;5.73;2.13;;;;;;;31.81;31.29;99323.59;255291;1103;103294;-72
2021/06/20 16:15:18;;;;;;;2.40;2.20;;;;;;;31.65;30.95;99325.86;254432;1103;116016;-72
2021/06/20 16:20:23;;;;;;;1.78;1.70;;;;;;;31.48;30.87;99312.79;254440;1104;116653;-73
2021/06/20 16:25:27;;;;;;;2.40;2.25;;;;;;;31.34;30.98;99316.23;254343;1104;116355;-77
2021/06/20 16:30:31;;;;;;;2.00;1.85;;;;;;;31.31;31.50;99310.70;254894;1104;117142;-74
2021/06/20 16:35:35;;;;;;;2.87;2.67;;;;;;;31.27;32.52;99309.89;254365;1104;116029;-77
2021/06/20 16:40:38;;;;;;;4.85;2.65;;;;;;;31.21;32.95;99316.92;254930;1102;115585;-73
2021/06/20 16:45:42;;;;;;;3.37;3.03;;;;;;;31.09;32.78;99310.54;255179;1104;115693;-74
2021/06/20 16:50:46;;;;;;;6.25;2.38;;;;;;;30.96;32.84;99303.73;256785;1103;115603;-74
2021/06/20 16:55:54;;;;;;;2.50;2.30;;;;;;;30.81;33.26;99313.07;257203;1104;115544;-74
2021/06/20 17:00:58;;;;;;;3.40;3.20;;;;;;;30.70;33.33;99314.92;257210;1104;115459;-74
2021/06/20 17:06:01;;;;;;;2.78;2.58;;;;;;;30.61;33.32;99311.69;257160;1103;115321;-72
2021/06/20 17:11:04;;;;;;;5.10;2.48;;;;;;;30.45;33.93;99315.46;256906;1102;115476;-73
2021/06/20 17:16:07;;;;;;;2.90;2.70;;;;;;;30.34;33.64;99308.26;256371;1103;115285;-72
2021/06/20 17:21:10;;;;;;;3.30;1.95;;;;;;;30.22;34.12;99298.33;256704;1103;115962;-75
2021/06/20 17:26:14;;;;;;;3.08;2.75;;;;;;;30.10;34.17;99296.63;254026;1102;114856;-73
2021/06/20 17:31:20;;;;;;;1.68;1.58;;;;;;;29.93;33.49;99283.45;255431;1103;115445;-74
2021/06/20 17:36:31;;;;;;;9.65;3.10;;;;;;;29.79;34.21;99278.57;254177;1096;116133;-74
2021/06/20 17:41:36;;;;;;;66.58;48.15;;;;;;;29.59;34.58;99281.84;254598;1096;115989;-74
2021/06/20 17:46:40;;;;;;;299.50;170.83;;;;;;;29.45;35.34;99279.69;254055;1102;115437;-72
2021/06/20 17:51:45;;;;;;;165.68;86.93;;;;;;;29.26;35.40;99277.05;254602;1103;116662;-73
2021/06/20 17:56:49;;;;;;;122.13;65.13;;;;;;;29.06;35.70;99274.40;254522;1103;116671;-73
2021/06/20 18:01:53;;;;;;;22.55;9.95;;;;;;;28.82;36.18;99283.04;254442;1104;116149;-71
2021/06/20 18:06:57;;;;;;;5.95;4.98;;;;;;;28.62;36.36;99282.30;254394;1104;115801;-73
2021/06/20 18:12:01;;;;;;;3.98;3.30;;;;;;;28.42;36.78;99283.53;254244;1104;115944;-73
2021/06/20 18:17:04;;;;;;;12.73;8.20;;;;;;;28.20;37.49;99276.81;254780;1104;115588;-74
2021/06/20 18:22:08;;;;;;;17.97;7.07;;;;;;;27.96;38.20;99294.36;254833;1104;117013;-73
2021/06/20 18:27:12;;;;;;;4.88;3.58;;;;;;;27.72;39.23;99297.39;254123;1100;116037;-74
2021/06/20 18:32:16;;;;;;;3.15;2.78;;;;;;;27.50;40.06;99305.13;255087;1104;116479;-72
2021/06/20 18:37:21;;;;;;;16.00;7.90;;;;;;;27.25;40.36;99302.96;255228;1104;116087;-73
2021/06/20 18:42:27;;;;;;;9.20;4.20;;;;;;;26.99;41.11;99306.27;255248;1102;115185;-71
2021/06/20 18:47:31;;;;;;;3.45;3.15;;;;;;;26.79;41.98;99308.11;255669;1103;115708;-71
2021/06/20 18:52:35;;;;;;;3.68;3.48;;;;;;;26.62;42.26;99303.77;254247;1104;117186;-73
2021/06/20 18:57:41;;;;;;;3.98;2.98;;;;;;;26.44;41.72;99306.05;254274;1104;115598;-71
2021/06/20 19:02:43;;;;;;;13.38;3.68;;;;;;;26.27;42.55;99322.75;256798;1103;114841;-71
2021/06/20 19:07:48;;;;;;;10.73;6.55;;;;;;;26.09;42.72;99318.72;255373;1097;115908;-71
2021/06/20 19:12:56;;;;;;;59.63;25.40;;;;;;;25.86;43.50;99326.66;255919;1104;115774;-71
2021/06/20 19:17:59;;;;;;;30.93;15.43;;;;;;;25.67;43.69;99335.48;255004;1104;116852;-73
2021/06/20 19:23:05;;;;;;;11.08;6.48;;;;;;;25.53;43.58;99345.92;254270;1104;116857;-72
2021/06/20 19:28:10;;;;;;;4.58;4.20;;;;;;;25.37;44.05;99353.23;255539;1104;115052;-71
2021/06/20 19:33:13;;;;;;;8.60;4.08;;;;;;;25.20;45.18;99359.70;256345;1104;115296;-73
2021/06/20 19:38:16;;;;;;;4.65;3.73;;;;;;;25.01;45.70;99370.38;254976;1103;115644;-75
2021/06/20 19:43:19;;;;;;;4.70;3.48;;;;;;;24.79;46.99;99374.27;254431;1102;115677;-76
2021/06/20 19:48:22;;;;;;;3.38;3.00;;;;;;;24.56;47.97;99370.36;254323;1102;115589;-76
2021/06/20 19:53:26;;;;;;;9.35;3.93;;;;;;;24.31;48.09;99380.38;254304;1096;115123;-74
2021/06/20 19:58:29;;;;;;;4.45;3.68;;;;;;;23.97;48.79;99384.14;254265;1102;115480;-76
2021/06/20 20:03:36;;;;;;;6.75;5.05;;;;;;;23.67;49.33;99377.95;254224;1100;205413;-73
2021/06/20 20:08:38;;;;;;;14.45;7.85;;;;;;;23.46;50.16;99377.90;254615;1097;115987;-74
2021/06/20 20:13:42;;;;;;;41.30;16.53;;;;;;;23.30;50.62;99385.80;254381;1104;116271;-73
2021/06/20 20:18:45;;;;;;;20.18;10.15;;;;;;;23.08;51.35;99392.30;255546;1104;115806;-75
2021/06/20 20:23:48;;;;;;;22.23;9.63;;;;;;;22.90;51.72;99401.66;254539;1102;116639;-76
2021/06/20 20:28:55;;;;;;;25.00;13.00;;;;;;;22.80;52.30;99401.98;254425;1097;115603;-73
2021/06/20 20:33:59;;;;;;;10.90;7.30;;;;;;;22.68;52.92;99405.33;254972;1104;115836;-74
2021/06/20 20:39:02;;;;;;;14.15;6.53;;;;;;;22.56;53.59;99401.69;254183;1104;116427;-73
2021/06/20 20:44:06;;;;;;;9.03;6.78;;;;;;;22.42;53.83;99408.09;254139;1096;115933;-76
2021/06/20 20:49:11;;;;;;;10.63;7.63;;;;;;;22.30;53.98;99402.52;254303;1103;115221;-74
2021/06/20 20:54:14;;;;;;;8.78;5.73;;;;;;;22.23;54.30;99404.11;254360;1103;115372;-76
2021/06/20 20:59:19;;;;;;;6.55;5.85;;;;;;;22.14;54.75;99401.39;254227;1104;114686;-76
2021/06/20 21:04:22;;;;;;;11.33;6.40;;;;;;;22.04;55.22;99413.35;254285;1102;116181;-75
2021/06/20 21:09:26;;;;;;;6.08;4.98;;;;;;;22.05;55.41;99419.58;256932;1103;115551;-74
2021/06/20 21:14:28;;;;;;;11.45;6.55;;;;;;;22.08;56.11;99410.80;256274;1103;115255;-74
2021/06/20 21:19:31;;;;;;;7.35;6.65;;;;;;;22.06;56.39;99413.03;254142;1096;116414;-73
2021/06/20 21:24:34;;;;;;;5.53;5.10;;;;;;;22.02;56.54;99401.21;254280;1102;115458;-74
2021/06/20 21:29:37;;;;;;;7.83;5.53;;;;;;;21.98;56.55;99406.47;254318;1099;116684;-73
2021/06/20 21:34:39;;;;;;;5.80;5.20;;;;;;;21.96;56.91;99407.91;255528;1104;115727;-75
2021/06/20 21:39:42;;;;;;;5.20;4.80;;;;;;;21.98;56.91;99402.96;255072;1103;115446;-74
2021/06/20 21:44:45;;;;;;;9.05;5.65;;;;;;;21.96;57.21;99394.34;255923;1104;115054;-73
2021/06/20 21:49:48;;;;;;;7.30;6.60;;;;;;;21.95;57.38;99393.53;254916;1103;115362;-74
2021/06/20 21:54:57;;;;;;;7.13;6.10;;;;;;;21.89;57.31;99388.58;255164;1104;115369;-71
2021/06/20 22:00:05;;;;;;;9.38;6.13;;;;;;;21.84;57.51;99375.95;254498;1104;115657;-74
2021/06/20 22:05:11;;;;;;;6.23;5.73;;;;;;;21.73;57.78;99369.23;254467;1104;115883;-75
2021/06/20 22:10:18;;;;;;;7.30;6.53;;;;;;;21.63;58.03;99370.35;255063;1096;117128;-75
2021/06/20 22:15:23;;;;;;;10.33;5.90;;;;;;;21.61;58.35;99378.00;254487;1103;115766;-75
2021/06/20 22:20:28;;;;;;;;;;;;;;;21.64;58.37;99373.86;254351;1097;115442;-74
2021/06/20 22:25:30;;;;;;;7.50;6.10;;;;;;;21.65;58.41;99378.97;255620;1103;103021;-74
2021/06/20 22:30:34;;;;;;;6.97;6.17;;;;;;;21.69;58.73;99379.14;254394;1103;114954;-72
2021/06/20 22:35:39;;;;;;;7.45;6.70;;;;;;;21.70;58.71;99381.55;254229;1104;116051;-73
2021/06/20 22:40:43;;;;;;;8.08;7.28;;;;;;;21.67;58.83;99365.89;254224;1104;114948;-72
2021/06/20 22:45:47;;;;;;;9.13;6.53;;;;;;;21.70;59.07;99364.47;254251;1104;115576;-74
2021/06/20 22:50:52;;;;;;;7.90;7.10;;;;;;;21.71;59.28;99355.18;254396;1103;115362;-71
2021/06/20 22:55:56;;;;;;;7.43;6.83;;;;;;;21.69;59.36;99341.97;255267;1103;115338;-71
2021/06/20 23:00:59;;;;;;;7.30;6.70;;;;;;;21.64;59.41;99344.83;254342;1102;116309;-71
2021/06/20 23:06:02;;;;;;;8.37;6.83;;;;;;;21.61;59.38;99331.89;254263;1104;115431;-70
2021/06/20 23:11:05;;;;;;;7.08;5.90;;;;;;;21.61;59.87;99323.76;254352;1104;115601;-74
2021/06/20 23:16:07;;;;;;;8.75;7.85;;;;;;;21.63;59.77;99321.53;254232;1100;115531;-74
2021/06/20 23:21:10;;;;;;;7.40;6.80;;;;;;;21.62;60.18;99321.84;255181;1103;115357;-74